createdAt,value
2018-10-01T00:01:47.286Z,13.97
2018-10-01T00:04:15.439Z,13.98
2018-10-01T00:06:43.512Z,14.01
2018-10-01T00:09:11.579Z,14.03
2018-10-01T00:11:39.656Z,14.03
2018-10-01T00:14:07.725Z,14.01
2018-10-01T00:16:35.793Z,14.01
2018-10-01T00:19:07.471Z,14.02
2018-10-01T00:21:41.070Z,14.02
2018-10-01T00:24:09.236Z,14.01
2018-10-01T00:26:37.305Z,14.02
2018-10-01T00:29:05.425Z,14.05
2018-10-01T00:31:33.486Z,14.05
2018-10-01T00:34:01.557Z,14.08
2018-10-01T00:36:29.616Z,14.08
2018-10-01T00:38:57.684Z,14.09
2018-10-01T00:41:25.741Z,14.10
2018-10-01T00:43:53.809Z,14.11
2018-10-01T00:46:21.873Z,14.13
2018-10-01T00:48:49.945Z,14.12
2018-10-01T00:51:18.005Z,14.11
2018-10-01T00:53:46.073Z,14.11
2018-10-01T00:56:14.128Z,14.10
2018-10-01T00:58:42.189Z,14.07
2018-10-01T01:01:10.252Z,14.07
2018-10-01T01:03:38.322Z,14.06
2018-10-01T01:06:06.385Z,14.05
2018-10-01T01:08:34.456Z,14.02
2018-10-01T01:11:02.513Z,14.00
2018-10-01T01:13:30.582Z,13.98
2018-10-01T01:15:58.655Z,13.96
2018-10-01T01:18:26.721Z,13.94
2018-10-01T01:20:54.845Z,13.91
2018-10-01T01:23:22.941Z,13.88
2018-10-01T01:25:51.002Z,13.85
2018-10-01T01:28:19.069Z,13.81
2018-10-01T01:30:47.117Z,13.78
2018-10-01T01:33:15.250Z,13.74
2018-10-01T01:35:43.409Z,13.68
2018-10-01T01:38:11.460Z,13.65
2018-10-01T01:40:39.525Z,13.62
2018-10-01T01:43:07.640Z,13.60
2018-10-01T01:45:35.729Z,13.58
2018-10-01T01:48:03.798Z,13.56
2018-10-01T01:50:31.874Z,13.55
2018-10-01T01:52:59.977Z,13.53
2018-10-01T01:55:28.138Z,13.51
2018-10-01T01:57:56.202Z,13.51
2018-10-01T02:00:24.269Z,13.51
2018-10-01T02:02:52.324Z,13.51
2018-10-01T02:05:20.421Z,13.52
2018-10-01T02:07:48.489Z,13.51
2018-10-01T02:10:16.570Z,13.48
2018-10-01T02:12:44.634Z,13.44
2018-10-01T02:15:12.701Z,13.44
2018-10-01T02:17:40.761Z,13.43
2018-10-01T02:20:08.832Z,13.43
2018-10-01T02:22:36.881Z,13.40
2018-10-01T02:25:04.955Z,13.36
2018-10-01T02:27:33.013Z,13.36
2018-10-01T02:30:01.092Z,13.37
2018-10-01T02:32:29.208Z,13.39
2018-10-01T02:34:57.300Z,13.41
2018-10-01T02:37:25.364Z,13.42
2018-10-01T02:39:53.442Z,13.44
2018-10-01T02:42:21.501Z,13.45
2018-10-01T02:44:49.581Z,13.46
2018-10-01T02:47:17.641Z,13.49
2018-10-01T02:49:45.713Z,13.51
2018-10-01T02:52:19.046Z,13.53
2018-10-01T02:54:47.120Z,13.53
2018-10-01T02:57:15.186Z,13.53
2018-10-01T02:59:43.260Z,13.55
2018-10-01T03:02:11.328Z,13.56
2018-10-01T03:04:39.396Z,13.57
2018-10-01T03:07:07.514Z,13.59
2018-10-01T03:09:35.577Z,13.60
2018-10-01T03:12:03.634Z,13.59
2018-10-01T03:14:31.705Z,13.58
2018-10-01T03:16:59.774Z,13.58
2018-10-01T03:19:27.848Z,13.59
2018-10-01T03:21:55.914Z,13.59
2018-10-01T03:24:24.078Z,13.59
2018-10-01T03:26:52.141Z,13.60
2018-10-01T03:29:20.214Z,13.56
2018-10-01T03:31:48.309Z,13.57
2018-10-01T03:34:16.385Z,13.55
2018-10-01T03:36:44.453Z,13.52
2018-10-01T03:39:12.532Z,13.53
2018-10-01T03:41:40.993Z,13.53
2018-10-01T03:44:09.336Z,13.51
2018-10-01T03:46:37.422Z,13.52
2018-10-01T03:49:05.480Z,13.52
2018-10-01T03:51:33.548Z,13.50
2018-10-01T03:54:01.614Z,13.49
2018-10-01T03:56:29.718Z,13.49
2018-10-01T03:58:57.774Z,13.48
2018-10-01T04:01:25.838Z,13.48
2018-10-01T04:03:53.896Z,13.45
2018-10-01T04:06:21.974Z,13.42
2018-10-01T04:08:50.070Z,13.39
2018-10-01T04:11:18.118Z,13.36
2018-10-01T04:13:46.174Z,13.33
2018-10-01T04:16:14.254Z,13.31
2018-10-01T04:18:42.314Z,13.30
2018-10-01T04:21:10.425Z,13.29
2018-10-01T04:23:38.490Z,13.28
2018-10-01T04:26:06.604Z,13.26
2018-10-01T04:28:34.736Z,13.24
2018-10-01T04:31:02.785Z,13.21
2018-10-01T04:33:30.857Z,13.20
2018-10-01T04:35:59.289Z,13.18
2018-10-01T04:38:27.356Z,13.17
2018-10-01T04:40:55.450Z,13.15
2018-10-01T04:43:23.521Z,13.14
2018-10-01T04:45:51.590Z,13.14
2018-10-01T04:48:19.684Z,13.12
2018-10-01T04:50:47.761Z,13.11
2018-10-01T04:53:15.833Z,13.10
2018-10-01T04:55:43.909Z,13.09
2018-10-01T04:58:12.078Z,13.07
2018-10-01T05:00:40.106Z,13.06
2018-10-01T05:03:08.295Z,13.03
2018-10-01T05:05:36.365Z,13.00
2018-10-01T05:08:04.425Z,12.97
2018-10-01T05:10:32.493Z,12.93
2018-10-01T05:13:00.582Z,12.90
2018-10-01T05:15:28.665Z,12.89
2018-10-01T05:17:56.747Z,12.89
2018-10-01T05:20:24.810Z,12.90
2018-10-01T05:22:52.889Z,12.90
2018-10-01T05:25:20.957Z,12.89
2018-10-01T05:27:49.038Z,12.87
2018-10-01T05:30:17.098Z,12.89
2018-10-01T05:32:45.170Z,12.90
2018-10-01T05:35:13.262Z,12.89
2018-10-01T05:37:41.484Z,12.89
2018-10-01T05:40:09.445Z,12.90
2018-10-01T05:42:37.518Z,12.90
2018-10-01T05:45:05.798Z,12.90
2018-10-01T05:47:33.867Z,12.92
2018-10-01T05:50:01.964Z,12.95
2018-10-01T05:52:30.137Z,12.93
2018-10-01T05:54:58.181Z,12.94
2018-10-01T05:57:26.243Z,12.95
2018-10-01T05:59:54.299Z,12.96
2018-10-01T06:02:22.379Z,12.98
2018-10-01T06:04:50.554Z,12.98
2018-10-01T06:07:18.559Z,13.00
2018-10-01T06:09:46.631Z,13.01
2018-10-01T06:12:14.702Z,13.04
2018-10-01T06:14:42.763Z,13.07
2018-10-01T06:17:11.103Z,13.09
2018-10-01T06:19:39.177Z,13.10
2018-10-01T06:22:07.466Z,13.11
2018-10-01T06:24:35.569Z,13.12
2018-10-01T06:27:03.642Z,13.10
2018-10-01T06:29:32.197Z,13.12
2018-10-01T06:32:00.282Z,13.14
2018-10-01T06:34:28.355Z,13.16
2018-10-01T06:36:56.433Z,13.16
2018-10-01T06:39:24.545Z,13.17
2018-10-01T06:41:52.684Z,13.20
2018-10-01T06:44:20.673Z,13.21
2018-10-01T06:46:48.775Z,13.22
2018-10-01T06:49:16.850Z,13.23
2018-10-01T06:51:44.946Z,13.25
2018-10-01T06:54:13.017Z,13.22
2018-10-01T06:56:41.085Z,13.16
2018-10-01T06:59:09.161Z,13.14
2018-10-01T07:01:37.221Z,13.14
2018-10-01T07:04:05.302Z,13.18
2018-10-01T07:06:33.373Z,13.17
2018-10-01T07:09:01.445Z,13.20
2018-10-01T07:11:29.603Z,13.21
2018-10-01T07:13:57.601Z,13.23
2018-10-01T07:16:25.778Z,13.25
2018-10-01T07:18:53.842Z,13.28
2018-10-01T07:21:21.911Z,13.31
2018-10-01T07:23:50.020Z,13.34
2018-10-01T07:26:18.113Z,13.37
2018-10-01T07:28:46.189Z,13.39
2018-10-01T07:31:14.270Z,13.42
2018-10-01T07:33:42.356Z,13.46
2018-10-01T07:36:10.422Z,13.48
2018-10-01T07:38:38.502Z,13.49
2018-10-01T07:41:06.761Z,13.48
2018-10-01T07:43:34.829Z,13.45
2018-10-01T07:46:02.948Z,13.41
2018-10-01T07:48:31.027Z,13.38
2018-10-01T07:50:59.276Z,13.45
2018-10-01T07:53:27.198Z,13.61
2018-10-01T07:55:55.274Z,13.86
2018-10-01T07:58:23.345Z,14.17
2018-10-01T08:00:51.417Z,14.50
2018-10-01T08:03:19.517Z,14.86
2018-10-01T08:05:47.585Z,15.13
2018-10-01T08:08:15.704Z,15.34
2018-10-01T08:10:43.737Z,15.44
2018-10-01T08:13:11.849Z,15.47
2018-10-01T08:15:39.911Z,15.49
2018-10-01T08:18:07.985Z,15.46
2018-10-01T08:20:36.077Z,15.37
2018-10-01T08:23:04.217Z,15.29
2018-10-01T08:25:32.281Z,15.19
2018-10-01T08:28:00.355Z,15.13
2018-10-01T08:30:28.457Z,15.16
2018-10-01T08:32:56.528Z,15.13
2018-10-01T08:35:24.619Z,15.20
2018-10-01T08:37:52.691Z,15.26
2018-10-01T08:40:20.769Z,15.33
2018-10-01T08:42:48.864Z,15.22
2018-10-01T08:45:16.955Z,15.13
2018-10-01T08:47:45.091Z,15.00
2018-10-01T08:50:23.984Z,14.90
2018-10-01T08:52:56.255Z,14.97
2018-10-01T08:55:24.512Z,15.08
2018-10-01T08:57:52.573Z,15.11
2018-10-01T09:00:20.644Z,15.21
2018-10-01T09:02:48.706Z,15.28
2018-10-01T09:05:16.787Z,15.30
2018-10-01T09:07:44.852Z,15.32
2018-10-01T09:10:12.929Z,15.37
2018-10-01T09:12:41.006Z,15.40
2018-10-01T09:15:09.170Z,15.44
2018-10-01T09:17:37.313Z,15.45
2018-10-01T09:20:06.243Z,15.48
2018-10-01T09:22:34.265Z,15.47
2018-10-01T09:25:02.645Z,15.45
2018-10-01T09:27:30.723Z,15.41
2018-10-01T09:29:58.801Z,15.35
2018-10-01T09:32:26.869Z,15.37
2018-10-01T09:34:54.990Z,15.37
2018-10-01T09:37:23.033Z,15.33
2018-10-01T09:39:51.123Z,15.33
2018-10-01T09:42:19.178Z,15.35
2018-10-01T09:44:47.253Z,15.40
2018-10-01T09:47:15.312Z,15.52
2018-10-01T09:49:43.389Z,15.59
2018-10-01T09:52:11.546Z,15.63
2018-10-01T09:54:39.525Z,15.70
2018-10-01T09:57:07.698Z,15.81
2018-10-01T09:59:35.776Z,16.01
2018-10-01T10:02:03.880Z,16.27
2018-10-01T10:04:31.999Z,16.42
2018-10-01T10:07:00.033Z,16.50
2018-10-01T10:09:28.109Z,16.68
2018-10-01T10:11:56.186Z,16.87
2018-10-01T10:14:24.284Z,17.09
2018-10-01T10:16:52.479Z,17.36
2018-10-01T10:19:20.447Z,17.70
2018-10-01T10:21:48.554Z,17.96
2018-10-01T10:24:16.649Z,18.03
2018-10-01T10:26:44.737Z,17.97
2018-10-01T10:29:12.804Z,18.06
2018-10-01T10:31:40.890Z,18.21
2018-10-01T10:34:08.994Z,18.51
2018-10-01T10:36:37.057Z,18.70
2018-10-01T10:39:09.181Z,18.47
2018-10-01T10:41:37.332Z,17.76
2018-10-01T10:44:05.419Z,17.05
2018-10-01T10:46:33.494Z,16.50
2018-10-01T10:49:01.594Z,16.05
2018-10-01T10:51:29.658Z,15.68
2018-10-01T10:53:57.712Z,15.33
2018-10-01T10:56:25.779Z,14.96
2018-10-01T10:58:53.837Z,14.67
2018-10-01T11:01:21.901Z,14.48
2018-10-01T11:03:49.957Z,14.30
2018-10-01T11:06:18.064Z,14.16
2018-10-01T11:08:46.125Z,14.04
2018-10-01T11:11:14.206Z,13.94
2018-10-01T11:13:42.265Z,13.86
2018-10-01T11:16:10.341Z,13.81
2018-10-01T11:18:38.571Z,13.74
2018-10-01T11:21:07.413Z,13.77
2018-10-01T11:23:35.361Z,13.75
2018-10-01T11:26:03.452Z,13.78
2018-10-01T11:28:31.557Z,13.81
2018-10-01T11:30:59.629Z,13.80
2018-10-01T11:33:27.734Z,13.83
2018-10-01T11:35:55.809Z,13.86
2018-10-01T11:38:23.880Z,13.80
2018-10-01T11:40:51.993Z,13.69
2018-10-01T11:43:20.045Z,13.60
2018-10-01T11:45:48.224Z,13.56
2018-10-01T11:48:16.206Z,13.52
2018-10-01T11:50:44.289Z,13.45
2018-10-01T11:53:12.370Z,13.45
2018-10-01T11:55:40.451Z,13.36
2018-10-01T11:58:08.518Z,13.37
2018-10-01T12:00:36.597Z,13.46
2018-10-01T12:03:04.743Z,13.53
2018-10-01T12:05:32.753Z,13.62
2018-10-01T12:08:00.813Z,13.67
2018-10-01T12:10:28.971Z,13.75
2018-10-01T12:12:57.025Z,13.81
2018-10-01T12:15:25.179Z,13.89
2018-10-01T12:17:53.209Z,13.96
2018-10-01T12:20:21.295Z,14.02
2018-10-01T12:22:49.373Z,14.06
2018-10-01T12:25:17.431Z,14.10
2018-10-01T12:27:45.598Z,14.09
2018-10-01T12:30:13.590Z,14.13
2018-10-01T12:32:41.678Z,14.20
2018-10-01T12:35:09.847Z,14.25
2018-10-01T12:37:37.849Z,14.25
2018-10-01T12:40:05.909Z,14.30
2018-10-01T12:42:34.032Z,14.38
2018-10-01T12:45:02.106Z,14.49
2018-10-01T12:47:30.260Z,14.57
2018-10-01T12:49:58.337Z,14.67
2018-10-01T12:52:26.410Z,14.81
2018-10-01T12:54:54.478Z,15.05
2018-10-01T12:57:22.603Z,15.37
2018-10-01T12:59:50.626Z,15.56
2018-10-01T13:02:18.701Z,15.59
2018-10-01T13:04:46.782Z,15.58
2018-10-01T13:07:14.849Z,15.60
2018-10-01T13:09:42.921Z,15.61
2018-10-01T13:12:11.099Z,15.60
2018-10-01T13:14:39.136Z,15.58
2018-10-01T13:17:07.281Z,15.60
2018-10-01T13:19:35.356Z,15.55
2018-10-01T13:22:03.428Z,15.44
2018-10-01T13:24:31.515Z,15.33
2018-10-01T13:26:59.601Z,15.29
2018-10-01T13:29:27.670Z,15.29
2018-10-01T13:31:55.769Z,15.36
2018-10-01T13:34:23.937Z,15.44
2018-10-01T13:36:52.013Z,15.45
2018-10-01T13:39:20.097Z,15.31
2018-10-01T13:41:48.179Z,15.19
2018-10-01T13:44:16.266Z,15.08
2018-10-01T13:46:44.337Z,14.99
2018-10-01T13:49:12.401Z,14.95
2018-10-01T13:51:40.482Z,14.94
2018-10-01T13:54:08.651Z,14.95
2018-10-01T13:56:36.691Z,14.97
2018-10-01T13:59:04.761Z,15.04
2018-10-01T14:01:32.862Z,15.19
2018-10-01T14:04:00.958Z,15.37
2018-10-01T14:06:29.062Z,15.31
2018-10-01T14:08:57.116Z,15.06
2018-10-01T14:11:25.181Z,14.80
2018-10-01T14:13:53.326Z,14.38
2018-10-01T14:16:22.353Z,14.01
2018-10-01T14:18:50.497Z,13.72
2018-10-01T14:21:18.586Z,13.36
2018-10-01T14:23:46.674Z,13.41
2018-10-01T14:26:14.765Z,13.49
2018-10-01T14:28:42.845Z,13.67
2018-10-01T14:31:11.030Z,13.82
2018-10-01T14:33:39.069Z,13.85
2018-10-01T14:36:07.206Z,13.88
2018-10-01T14:38:35.229Z,14.01
2018-10-01T14:41:03.309Z,14.20
2018-10-01T14:43:31.369Z,14.33
2018-10-01T14:45:59.439Z,14.30
2018-10-01T14:48:27.591Z,14.18
2018-10-01T14:50:55.602Z,14.07
2018-10-01T14:53:23.690Z,13.97
2018-10-01T14:55:51.757Z,13.89
2018-10-01T14:58:19.842Z,13.83
2018-10-01T15:00:47.948Z,13.77
2018-10-01T15:03:16.033Z,13.70
2018-10-01T15:05:44.312Z,13.65
2018-10-01T15:08:12.388Z,13.59
2018-10-01T15:10:40.481Z,13.53
2018-10-01T15:13:08.563Z,13.44
2018-10-01T15:15:36.625Z,13.37
2018-10-01T15:18:04.773Z,13.32
2018-10-01T15:20:32.818Z,13.25
2018-10-01T15:23:00.894Z,13.15
2018-10-01T15:25:28.965Z,13.08
2018-10-01T15:27:57.101Z,13.02
2018-10-01T15:30:25.162Z,12.99
2018-10-01T15:32:53.229Z,12.98
2018-10-01T15:35:21.352Z,12.95
2018-10-01T15:37:49.416Z,12.94
2018-10-01T15:40:17.498Z,12.90
2018-10-01T15:42:45.581Z,12.88
2018-10-01T15:45:13.661Z,12.88
2018-10-01T15:47:41.741Z,12.84
2018-10-01T15:50:09.826Z,12.79
2018-10-01T15:52:37.889Z,12.74
2018-10-01T15:55:06.074Z,12.73
2018-10-01T15:57:34.446Z,12.68
2018-10-01T16:00:07.907Z,12.66
2018-10-01T16:02:36.590Z,12.66
2018-10-01T16:05:05.027Z,12.66
2018-10-01T16:07:33.110Z,12.66
2018-10-01T16:10:01.201Z,12.68
2018-10-01T16:12:29.348Z,12.65
2018-10-01T16:14:57.426Z,12.63
2018-10-01T16:17:25.725Z,12.58
2018-10-01T16:19:53.809Z,12.51
2018-10-01T16:22:21.884Z,12.44
2018-10-01T16:24:49.981Z,12.39
2018-10-01T16:27:18.064Z,12.34
2018-10-01T16:29:46.149Z,12.28
2018-10-01T16:32:14.238Z,12.21
2018-10-01T16:34:42.330Z,12.21
2018-10-01T16:37:10.429Z,12.20
2018-10-01T16:39:38.512Z,12.21
2018-10-01T16:42:06.627Z,12.20
2018-10-01T16:44:34.681Z,12.18
2018-10-01T16:47:02.742Z,12.19
2018-10-01T16:49:30.822Z,12.14
2018-10-01T16:51:58.942Z,12.08
2018-10-01T16:54:26.974Z,12.04
2018-10-01T16:56:55.056Z,12.00
2018-10-01T16:59:23.137Z,11.94
2018-10-01T17:01:51.205Z,11.88
2018-10-01T17:04:19.281Z,11.84
2018-10-01T17:06:47.354Z,11.80
2018-10-01T17:09:15.437Z,11.76
2018-10-01T17:11:43.515Z,11.76
2018-10-01T17:14:12.436Z,11.76
2018-10-01T17:16:40.507Z,11.72
2018-10-01T17:19:08.586Z,11.72
2018-10-01T17:21:36.708Z,11.65
2018-10-01T17:24:04.790Z,11.62
2018-10-01T17:26:32.877Z,11.58
2018-10-01T17:29:00.985Z,11.58
2018-10-01T17:31:29.066Z,11.56
2018-10-01T17:33:57.161Z,11.54
2018-10-01T17:36:25.248Z,11.54
2018-10-01T17:38:53.332Z,11.52
2018-10-01T17:41:21.436Z,11.49
2018-10-01T17:43:49.523Z,11.49
2018-10-01T17:46:17.600Z,11.49
2018-10-01T17:48:45.670Z,11.48
2018-10-01T17:51:13.762Z,11.46
2018-10-01T17:53:41.862Z,11.44
2018-10-01T17:56:09.942Z,11.44
2018-10-01T17:58:37.997Z,11.44
2018-10-01T18:01:06.090Z,11.44
2018-10-01T18:03:34.162Z,11.44
2018-10-01T18:06:02.313Z,11.42
2018-10-01T18:08:30.337Z,11.40
2018-10-01T18:10:58.426Z,11.39
2018-10-01T18:13:26.488Z,11.37
2018-10-01T18:15:54.593Z,11.34
2018-10-01T18:18:22.688Z,11.28
2018-10-01T18:20:50.760Z,11.22
2018-10-01T18:23:18.857Z,11.14
2018-10-01T18:25:46.989Z,11.09
2018-10-01T18:28:15.061Z,11.05
2018-10-01T18:30:43.144Z,10.98
2018-10-01T18:33:11.229Z,10.94
2018-10-01T18:35:39.329Z,10.88
2018-10-01T18:38:07.493Z,10.82
2018-10-01T18:40:35.565Z,10.76
2018-10-01T18:43:03.632Z,10.69
2018-10-01T18:45:31.710Z,10.64
2018-10-01T18:47:59.863Z,10.58
2018-10-01T18:50:27.939Z,10.53
2018-10-01T18:52:55.979Z,10.48
2018-10-01T18:55:24.062Z,10.41
2018-10-01T18:57:52.130Z,10.35
2018-10-01T19:00:20.270Z,10.27
2018-10-01T19:02:48.382Z,10.24
2018-10-01T19:05:16.462Z,10.21
2018-10-01T19:07:44.556Z,10.17
2018-10-01T19:10:12.669Z,10.12
2018-10-01T19:12:40.734Z,10.08
2018-10-01T19:15:10.077Z,10.05
2018-10-01T19:17:38.149Z,10.03
2018-10-01T19:20:06.260Z,10.02
2018-10-01T19:22:34.355Z,10.02
2018-10-01T19:25:02.425Z,9.99
2018-10-01T19:27:30.801Z,9.98
2018-10-01T19:29:58.931Z,9.98
2018-10-01T19:32:26.978Z,10.00
2018-10-01T19:34:55.066Z,10.01
2018-10-01T19:37:23.196Z,10.02
2018-10-01T19:39:51.245Z,10.04
2018-10-01T19:42:19.321Z,10.05
2018-10-01T19:44:47.604Z,10.04
2018-10-01T19:47:15.716Z,10.05
2018-10-01T19:49:43.761Z,10.07
2018-10-01T19:52:11.838Z,10.09
2018-10-01T19:54:39.913Z,10.08
2018-10-01T19:57:08.017Z,10.09
2018-10-01T19:59:36.074Z,10.09
2018-10-01T20:02:04.221Z,10.07
2018-10-01T20:04:32.265Z,10.06
2018-10-01T20:07:00.345Z,10.04
2018-10-01T20:09:28.413Z,10.03
2018-10-01T20:11:56.488Z,10.02
2018-10-01T20:14:24.553Z,10.01
2018-10-01T20:16:52.697Z,10.01
2018-10-01T20:19:20.737Z,9.97
2018-10-01T20:21:48.881Z,9.96
2018-10-01T20:24:17.025Z,9.93
2018-10-01T20:26:45.178Z,9.93
2018-10-01T20:29:13.217Z,9.92
2018-10-01T20:31:41.159Z,9.92
2018-10-01T20:34:09.245Z,9.93
2018-10-01T20:36:37.302Z,9.97
2018-10-01T20:39:07.897Z,9.96
2018-10-01T20:41:35.968Z,9.97
2018-10-01T20:44:04.066Z,9.93
2018-10-01T20:46:32.117Z,9.94
2018-10-01T20:49:00.205Z,9.94
2018-10-01T20:51:28.288Z,9.95
2018-10-01T20:53:56.398Z,9.92
2018-10-01T20:56:24.531Z,9.93
2018-10-01T20:58:52.598Z,9.90
2018-10-01T21:01:20.626Z,9.89
2018-10-01T21:03:48.699Z,9.89
2018-10-01T21:06:16.759Z,9.88
2018-10-01T21:08:44.829Z,9.84
2018-10-01T21:11:12.886Z,9.80
2018-10-01T21:13:40.973Z,9.78
2018-10-01T21:16:09.064Z,9.76
2018-10-01T21:18:37.153Z,9.75
2018-10-01T21:21:05.230Z,9.73
2018-10-01T21:23:33.377Z,9.72
2018-10-01T21:26:01.445Z,9.71
2018-10-01T21:28:29.492Z,9.69
2018-10-01T21:30:57.561Z,9.68
2018-10-01T21:33:25.658Z,9.66
2018-10-01T21:35:53.721Z,9.68
2018-10-01T21:38:21.789Z,9.70
2018-10-01T21:40:49.869Z,9.71
2018-10-01T21:43:17.925Z,9.71
2018-10-01T21:45:45.996Z,9.70
2018-10-01T21:48:14.061Z,9.71
2018-10-01T21:50:42.125Z,9.70
2018-10-01T21:53:10.193Z,9.70
2018-10-01T21:55:38.257Z,9.68
2018-10-01T21:58:06.313Z,9.69
2018-10-01T22:00:39.827Z,9.69
2018-10-01T22:03:07.965Z,9.70
2018-10-01T22:05:36.050Z,9.71
2018-10-01T22:08:04.118Z,9.71
2018-10-01T22:10:32.198Z,9.71
2018-10-01T22:13:00.265Z,9.69
2018-10-01T22:15:32.517Z,9.65
2018-10-01T22:18:00.577Z,9.61
2018-10-01T22:20:28.694Z,9.62
2018-10-01T22:22:56.750Z,9.61
2018-10-01T22:25:24.826Z,9.59
2018-10-01T22:27:52.894Z,9.56
2018-10-01T22:30:20.958Z,9.55
2018-10-01T22:32:49.033Z,9.53
2018-10-01T22:35:17.112Z,9.53
2018-10-01T22:37:45.212Z,9.50
2018-10-01T22:40:13.265Z,9.50
2018-10-01T22:42:41.338Z,9.48
2018-10-01T22:45:09.397Z,9.47
2018-10-01T22:47:37.466Z,9.46
2018-10-01T22:50:05.610Z,9.43
2018-10-01T22:52:33.690Z,9.40
2018-10-01T22:55:01.753Z,9.39
2018-10-01T22:57:29.825Z,9.39
2018-10-01T22:59:57.883Z,9.40
2018-10-01T23:02:25.970Z,9.42
2018-10-01T23:04:54.029Z,9.44
2018-10-01T23:07:22.222Z,9.47
2018-10-01T23:09:50.276Z,9.48
2018-10-01T23:12:18.340Z,9.50
2018-10-01T23:14:46.404Z,9.52
2018-10-01T23:17:14.461Z,9.54
2018-10-01T23:19:42.525Z,9.53
2018-10-01T23:22:10.569Z,9.54
2018-10-01T23:24:38.628Z,9.54
2018-10-01T23:27:06.683Z,9.55
2018-10-01T23:29:34.744Z,9.56
2018-10-01T23:32:02.817Z,9.59
2018-10-01T23:34:30.888Z,9.61
2018-10-01T23:36:58.944Z,9.63
2018-10-01T23:39:27.009Z,9.65
2018-10-01T23:41:55.067Z,9.67
2018-10-01T23:44:23.136Z,9.68
2018-10-01T23:46:51.208Z,9.68
2018-10-01T23:49:19.278Z,9.69
2018-10-01T23:51:47.328Z,9.72
2018-10-01T23:54:15.452Z,9.72
2018-10-01T23:56:43.540Z,9.72
2018-10-01T23:59:11.603Z,9.73
